sensor_id;sensor_type;location;lat;lon;timestamp;P1;durP1;ratioP1;P2;durP2;ratioP2
74309;SDS011;62722;51.142;17.052;2023-04-19T00:02:14;18.52;;;9.38;;
74309;SDS011;62722;51.142;17.052;2023-04-19T00:04:42;16.88;;;9.05;;
74309;SDS011;62722;51.142;17.052;2023-04-19T00:07:10;19.63;;;8.55;;
74309;SDS011;62722;51.142;17.052;2023-04-19T00:09:37;15.07;;;7.80;;
74309;SDS011;62722;51.142;17.052;2023-04-19T00:12:05;17.40;;;9.25;;
74309;SDS011;62722;51.142;17.052;2023-04-19T00:14:32;17.83;;;8.02;;
74309;SDS011;62722;51.142;17.052;2023-04-19T00:17:01;18.05;;;9.25;;
74309;SDS011;62722;51.142;17.052;2023-04-19T00:19:28;17.65;;;8.90;;
74309;SDS011;62722;51.142;17.052;2023-04-19T00:21:56;16.67;;;8.75;;
74309;SDS011;62722;51.142;17.052;2023-04-19T00:24:23;16.55;;;9.38;;
74309;SDS011;62722;51.142;17.052;2023-04-19T00:26:51;17.08;;;8.73;;
74309;SDS011;62722;51.142;17.052;2023-04-19T00:29:18;18.73;;;8.85;;
74309;SDS011;62722;51.142;17.052;2023-04-19T00:31:45;16.35;;;8.60;;
74309;SDS011;62722;51.142;17.052;2023-04-19T00:34:14;18.00;;;8.25;;
74309;SDS011;62722;51.142;17.052;2023-04-19T00:36:42;18.00;;;8.75;;
74309;SDS011;62722;51.142;17.052;2023-04-19T00:39:09;16.05;;;7.85;;
74309;SDS011;62722;51.142;17.052;2023-04-19T00:41:37;16.75;;;8.35;;
74309;SDS011;62722;51.142;17.052;2023-04-19T00:44:04;17.40;;;8.30;;
74309;SDS011;62722;51.142;17.052;2023-04-19T00:46:32;14.52;;;7.47;;
74309;SDS011;62722;51.142;17.052;2023-04-19T00:48:59;14.70;;;7.97;;
74309;SDS011;62722;51.142;17.052;2023-04-19T00:51:28;13.30;;;7.13;;
74309;SDS011;62722;51.142;17.052;2023-04-19T00:53:56;14.18;;;7.93;;
74309;SDS011;62722;51.142;17.052;2023-04-19T00:56:24;14.13;;;7.03;;
74309;SDS011;62722;51.142;17.052;2023-04-19T00:58:53;14.15;;;6.63;;
74309;SDS011;62722;51.142;17.052;2023-04-19T01:01:21;11.82;;;6.20;;
74309;SDS011;62722;51.142;17.052;2023-04-19T01:03:48;12.40;;;7.03;;
74309;SDS011;62722;51.142;17.052;2023-04-19T01:06:16;15.77;;;7.80;;
74309;SDS011;62722;51.142;17.052;2023-04-19T01:08:44;13.40;;;6.85;;
74309;SDS011;62722;51.142;17.052;2023-04-19T01:11:12;13.50;;;7.30;;
74309;SDS011;62722;51.142;17.052;2023-04-19T01:13:39;13.63;;;6.90;;
74309;SDS011;62722;51.142;17.052;2023-04-19T01:16:07;15.30;;;7.47;;
74309;SDS011;62722;51.142;17.052;2023-04-19T01:18:34;13.70;;;7.47;;
74309;SDS011;62722;51.142;17.052;2023-04-19T01:21:02;15.35;;;8.10;;
74309;SDS011;62722;51.142;17.052;2023-04-19T01:23:31;15.32;;;8.25;;
74309;SDS011;62722;51.142;17.052;2023-04-19T01:25:58;15.40;;;7.45;;
74309;SDS011;62722;51.142;17.052;2023-04-19T01:28:27;14.35;;;7.82;;
74309;SDS011;62722;51.142;17.052;2023-04-19T01:30:55;13.90;;;6.90;;
74309;SDS011;62722;51.142;17.052;2023-04-19T01:33:22;14.68;;;7.30;;
74309;SDS011;62722;51.142;17.052;2023-04-19T01:35:49;13.18;;;6.88;;
74309;SDS011;62722;51.142;17.052;2023-04-19T01:38:17;12.60;;;6.47;;
74309;SDS011;62722;51.142;17.052;2023-04-19T01:40:46;13.30;;;6.63;;
74309;SDS011;62722;51.142;17.052;2023-04-19T01:43:16;14.77;;;7.85;;
74309;SDS011;62722;51.142;17.052;2023-04-19T01:45:44;13.32;;;7.38;;
74309;SDS011;62722;51.142;17.052;2023-04-19T01:48:11;13.63;;;6.75;;
74309;SDS011;62722;51.142;17.052;2023-04-19T01:50:38;12.40;;;6.20;;
74309;SDS011;62722;51.142;17.052;2023-04-19T01:53:06;10.73;;;6.00;;
74309;SDS011;62722;51.142;17.052;2023-04-19T01:55:33;10.00;;;5.30;;
74309;SDS011;62722;51.142;17.052;2023-04-19T01:58:02;9.77;;;4.93;;
74309;SDS011;62722;51.142;17.052;2023-04-19T02:00:29;9.57;;;5.15;;
74309;SDS011;62722;51.142;17.052;2023-04-19T02:02:56;10.18;;;5.05;;
74309;SDS011;62722;51.142;17.052;2023-04-19T02:05:24;8.15;;;4.22;;
74309;SDS011;62722;51.142;17.052;2023-04-19T02:07:51;9.02;;;4.75;;
74309;SDS011;62722;51.142;17.052;2023-04-19T02:10:19;11.73;;;5.25;;
74309;SDS011;62722;51.142;17.052;2023-04-19T02:12:47;11.18;;;5.53;;
74309;SDS011;62722;51.142;17.052;2023-04-19T02:15:15;10.73;;;5.32;;
74309;SDS011;62722;51.142;17.052;2023-04-19T02:17:43;9.57;;;5.10;;
74309;SDS011;62722;51.142;17.052;2023-04-19T02:20:11;11.70;;;5.32;;
74309;SDS011;62722;51.142;17.052;2023-04-19T02:22:38;9.27;;;4.88;;
74309;SDS011;62722;51.142;17.052;2023-04-19T02:25:06;10.95;;;4.88;;
74309;SDS011;62722;51.142;17.052;2023-04-19T02:27:36;8.63;;;4.75;;
74309;SDS011;62722;51.142;17.052;2023-04-19T02:30:04;7.28;;;4.25;;
74309;SDS011;62722;51.142;17.052;2023-04-19T02:32:33;8.52;;;4.03;;
74309;SDS011;62722;51.142;17.052;2023-04-19T02:35:01;8.32;;;4.28;;
74309;SDS011;62722;51.142;17.052;2023-04-19T02:37:28;9.13;;;4.80;;
74309;SDS011;62722;51.142;17.052;2023-04-19T02:39:56;7.72;;;4.13;;
74309;SDS011;62722;51.142;17.052;2023-04-19T02:42:23;8.48;;;4.43;;
74309;SDS011;62722;51.142;17.052;2023-04-19T02:44:50;8.30;;;4.22;;
74309;SDS011;62722;51.142;17.052;2023-04-19T02:47:17;8.25;;;3.85;;
74309;SDS011;62722;51.142;17.052;2023-04-19T02:49:47;7.13;;;4.15;;
74309;SDS011;62722;51.142;17.052;2023-04-19T02:52:14;7.55;;;4.32;;
74309;SDS011;62722;51.142;17.052;2023-04-19T02:54:41;8.48;;;4.70;;
74309;SDS011;62722;51.142;17.052;2023-04-19T02:57:08;10.02;;;4.68;;
74309;SDS011;62722;51.142;17.052;2023-04-19T02:59:36;8.88;;;4.38;;
74309;SDS011;62722;51.142;17.052;2023-04-19T03:02:03;7.47;;;3.90;;
74309;SDS011;62722;51.142;17.052;2023-04-19T03:04:30;10.18;;;4.00;;
74309;SDS011;62722;51.142;17.052;2023-04-19T03:07:00;9.25;;;3.72;;
74309;SDS011;62722;51.142;17.052;2023-04-19T03:09:27;10.52;;;4.15;;
74309;SDS011;62722;51.142;17.052;2023-04-19T03:11:55;6.97;;;3.90;;
74309;SDS011;62722;51.142;17.052;2023-04-19T03:14:22;6.90;;;3.70;;
74309;SDS011;62722;51.142;17.052;2023-04-19T03:16:49;8.18;;;3.70;;
74309;SDS011;62722;51.142;17.052;2023-04-19T03:19:17;7.10;;;3.58;;
74309;SDS011;62722;51.142;17.052;2023-04-19T03:21:44;7.00;;;3.17;;
74309;SDS011;62722;51.142;17.052;2023-04-19T03:24:13;7.53;;;3.38;;
74309;SDS011;62722;51.142;17.052;2023-04-19T03:26:40;6.20;;;3.30;;
74309;SDS011;62722;51.142;17.052;2023-04-19T03:29:07;6.00;;;3.15;;
74309;SDS011;62722;51.142;17.052;2023-04-19T03:31:35;6.28;;;3.53;;
74309;SDS011;62722;51.142;17.052;2023-04-19T03:34:03;8.48;;;3.80;;
74309;SDS011;62722;51.142;17.052;2023-04-19T03:36:30;8.50;;;4.25;;
74309;SDS011;62722;51.142;17.052;2023-04-19T03:38:57;9.35;;;4.20;;
74309;SDS011;62722;51.142;17.052;2023-04-19T03:41:26;9.25;;;4.45;;
74309;SDS011;62722;51.142;17.052;2023-04-19T03:43:53;9.30;;;4.53;;
74309;SDS011;62722;51.142;17.052;2023-04-19T03:46:22;8.05;;;4.30;;
74309;SDS011;62722;51.142;17.052;2023-04-19T03:48:50;6.82;;;4.05;;
74309;SDS011;62722;51.142;17.052;2023-04-19T03:51:18;11.32;;;4.25;;
74309;SDS011;62722;51.142;17.052;2023-04-19T03:53:45;9.02;;;4.32;;
74309;SDS011;62722;51.142;17.052;2023-04-19T03:56:12;6.15;;;3.30;;
74309;SDS011;62722;51.142;17.052;2023-04-19T03:58:41;7.25;;;3.38;;
74309;SDS011;62722;51.142;17.052;2023-04-19T04:01:16;6.05;;;3.15;;
74309;SDS011;62722;51.142;17.052;2023-04-19T04:03:44;6.45;;;3.17;;
74309;SDS011;62722;51.142;17.052;2023-04-19T04:06:11;8.20;;;3.28;;
74309;SDS011;62722;51.142;17.052;2023-04-19T04:08:38;6.22;;;2.95;;
74309;SDS011;62722;51.142;17.052;2023-04-19T04:11:05;6.75;;;3.33;;
74309;SDS011;62722;51.142;17.052;2023-04-19T04:13:33;7.65;;;3.15;;
74309;SDS011;62722;51.142;17.052;2023-04-19T04:16:02;6.35;;;3.65;;
74309;SDS011;62722;51.142;17.052;2023-04-19T04:18:29;10.00;;;4.13;;
74309;SDS011;62722;51.142;17.052;2023-04-19T04:20:57;7.75;;;3.75;;
74309;SDS011;62722;51.142;17.052;2023-04-19T04:23:24;8.30;;;3.97;;
74309;SDS011;62722;51.142;17.052;2023-04-19T04:25:56;8.25;;;3.58;;
74309;SDS011;62722;51.142;17.052;2023-04-19T04:28:25;7.70;;;4.20;;
74309;SDS011;62722;51.142;17.052;2023-04-19T04:30:52;8.00;;;4.38;;
74309;SDS011;62722;51.142;17.052;2023-04-19T04:33:24;6.18;;;3.30;;
74309;SDS011;62722;51.142;17.052;2023-04-19T04:35:52;7.57;;;4.07;;
74309;SDS011;62722;51.142;17.052;2023-04-19T04:38:20;8.75;;;3.42;;
74309;SDS011;62722;51.142;17.052;2023-04-19T04:40:48;7.28;;;3.67;;
74309;SDS011;62722;51.142;17.052;2023-04-19T04:43:18;7.22;;;3.47;;
74309;SDS011;62722;51.142;17.052;2023-04-19T04:45:47;8.70;;;3.88;;
74309;SDS011;62722;51.142;17.052;2023-04-19T04:48:14;6.00;;;3.22;;
74309;SDS011;62722;51.142;17.052;2023-04-19T04:50:43;10.32;;;4.00;;
74309;SDS011;62722;51.142;17.052;2023-04-19T04:53:10;8.73;;;3.70;;
74309;SDS011;62722;51.142;17.052;2023-04-19T04:55:37;8.27;;;3.60;;
74309;SDS011;62722;51.142;17.052;2023-04-19T04:58:05;8.35;;;3.80;;
74309;SDS011;62722;51.142;17.052;2023-04-19T05:00:33;5.60;;;3.28;;
74309;SDS011;62722;51.142;17.052;2023-04-19T05:03:00;7.68;;;2.63;;
74309;SDS011;62722;51.142;17.052;2023-04-19T05:05:28;5.50;;;3.10;;
74309;SDS011;62722;51.142;17.052;2023-04-19T05:07:57;8.70;;;3.90;;
74309;SDS011;62722;51.142;17.052;2023-04-19T05:10:25;8.13;;;4.03;;
74309;SDS011;62722;51.142;17.052;2023-04-19T05:12:53;5.40;;;2.85;;
74309;SDS011;62722;51.142;17.052;2023-04-19T05:15:20;9.57;;;3.75;;
74309;SDS011;62722;51.142;17.052;2023-04-19T05:17:48;9.30;;;4.03;;
74309;SDS011;62722;51.142;17.052;2023-04-19T05:20:15;7.20;;;3.70;;
74309;SDS011;62722;51.142;17.052;2023-04-19T05:22:42;8.68;;;3.60;;
74309;SDS011;62722;51.142;17.052;2023-04-19T05:25:11;10.52;;;3.88;;
74309;SDS011;62722;51.142;17.052;2023-04-19T05:27:39;10.55;;;4.15;;
74309;SDS011;62722;51.142;17.052;2023-04-19T05:30:06;7.18;;;3.55;;
74309;SDS011;62722;51.142;17.052;2023-04-19T05:32:34;6.07;;;2.88;;
74309;SDS011;62722;51.142;17.052;2023-04-19T05:35:01;8.82;;;3.53;;
74309;SDS011;62722;51.142;17.052;2023-04-19T05:37:29;9.27;;;3.78;;
74309;SDS011;62722;51.142;17.052;2023-04-19T05:40:17;8.23;;;3.90;;
74309;SDS011;62722;51.142;17.052;2023-04-19T05:42:44;8.43;;;3.30;;
74309;SDS011;62722;51.142;17.052;2023-04-19T05:45:11;7.22;;;3.70;;
74309;SDS011;62722;51.142;17.052;2023-04-19T05:47:40;8.00;;;3.60;;
74309;SDS011;62722;51.142;17.052;2023-04-19T05:50:07;5.85;;;3.15;;
74309;SDS011;62722;51.142;17.052;2023-04-19T05:52:35;5.75;;;2.75;;
74309;SDS011;62722;51.142;17.052;2023-04-19T05:55:03;7.38;;;3.58;;
74309;SDS011;62722;51.142;17.052;2023-04-19T05:57:33;7.72;;;4.13;;
74309;SDS011;62722;51.142;17.052;2023-04-19T06:00:00;7.63;;;3.60;;
74309;SDS011;62722;51.142;17.052;2023-04-19T06:02:28;8.30;;;3.47;;
74309;SDS011;62722;51.142;17.052;2023-04-19T06:04:55;7.35;;;3.53;;
74309;SDS011;62722;51.142;17.052;2023-04-19T06:07:23;6.40;;;3.42;;
74309;SDS011;62722;51.142;17.052;2023-04-19T06:09:51;7.35;;;3.55;;
74309;SDS011;62722;51.142;17.052;2023-04-19T06:12:19;5.75;;;2.90;;
74309;SDS011;62722;51.142;17.052;2023-04-19T06:14:47;9.35;;;3.05;;
74309;SDS011;62722;51.142;17.052;2023-04-19T06:17:16;6.35;;;3.20;;
74309;SDS011;62722;51.142;17.052;2023-04-19T06:19:47;6.22;;;3.08;;
74309;SDS011;62722;51.142;17.052;2023-04-19T06:22:15;7.20;;;3.00;;
74309;SDS011;62722;51.142;17.052;2023-04-19T06:24:43;6.72;;;3.60;;
74309;SDS011;62722;51.142;17.052;2023-04-19T06:27:11;7.53;;;3.65;;
74309;SDS011;62722;51.142;17.052;2023-04-19T06:29:38;9.05;;;3.72;;
74309;SDS011;62722;51.142;17.052;2023-04-19T06:32:07;5.20;;;3.20;;
74309;SDS011;62722;51.142;17.052;2023-04-19T06:34:35;6.20;;;2.80;;
74309;SDS011;62722;51.142;17.052;2023-04-19T06:37:03;7.78;;;3.40;;
74309;SDS011;62722;51.142;17.052;2023-04-19T06:39:30;7.38;;;3.25;;
74309;SDS011;62722;51.142;17.052;2023-04-19T06:41:58;7.28;;;3.03;;
74309;SDS011;62722;51.142;17.052;2023-04-19T06:44:26;6.15;;;2.80;;
74309;SDS011;62722;51.142;17.052;2023-04-19T06:46:54;7.18;;;3.25;;
74309;SDS011;62722;51.142;17.052;2023-04-19T06:49:23;7.28;;;3.25;;
74309;SDS011;62722;51.142;17.052;2023-04-19T06:51:50;8.40;;;3.72;;
74309;SDS011;62722;51.142;17.052;2023-04-19T06:54:18;9.13;;;3.40;;
74309;SDS011;62722;51.142;17.052;2023-04-19T06:56:47;6.93;;;3.00;;
74309;SDS011;62722;51.142;17.052;2023-04-19T06:59:16;7.90;;;3.58;;
74309;SDS011;62722;51.142;17.052;2023-04-19T07:01:46;8.13;;;3.00;;
74309;SDS011;62722;51.142;17.052;2023-04-19T07:04:13;7.50;;;3.13;;
74309;SDS011;62722;51.142;17.052;2023-04-19T07:06:43;8.20;;;4.00;;
74309;SDS011;62722;51.142;17.052;2023-04-19T07:09:14;7.97;;;3.25;;
74309;SDS011;62722;51.142;17.052;2023-04-19T07:11:41;7.18;;;2.90;;
74309;SDS011;62722;51.142;17.052;2023-04-19T07:14:09;7.85;;;3.55;;
74309;SDS011;62722;51.142;17.052;2023-04-19T07:16:36;8.07;;;4.00;;
74309;SDS011;62722;51.142;17.052;2023-04-19T07:19:04;8.07;;;3.60;;
74309;SDS011;62722;51.142;17.052;2023-04-19T07:21:32;8.68;;;4.00;;
74309;SDS011;62722;51.142;17.052;2023-04-19T07:24:01;6.63;;;3.58;;
74309;SDS011;62722;51.142;17.052;2023-04-19T07:26:29;7.65;;;4.00;;
74309;SDS011;62722;51.142;17.052;2023-04-19T07:28:56;7.97;;;3.80;;
74309;SDS011;62722;51.142;17.052;2023-04-19T07:31:25;7.95;;;3.92;;
74309;SDS011;62722;51.142;17.052;2023-04-19T07:33:53;7.35;;;3.60;;
74309;SDS011;62722;51.142;17.052;2023-04-19T07:36:21;9.05;;;4.57;;
74309;SDS011;62722;51.142;17.052;2023-04-19T07:38:48;8.60;;;3.80;;
74309;SDS011;62722;51.142;17.052;2023-04-19T07:41:17;8.52;;;3.88;;
74309;SDS011;62722;51.142;17.052;2023-04-19T07:43:44;10.23;;;4.22;;
74309;SDS011;62722;51.142;17.052;2023-04-19T07:46:13;9.30;;;3.78;;
74309;SDS011;62722;51.142;17.052;2023-04-19T07:48:41;6.97;;;3.60;;
74309;SDS011;62722;51.142;17.052;2023-04-19T07:51:09;8.40;;;4.13;;
74309;SDS011;62722;51.142;17.052;2023-04-19T07:53:37;7.88;;;3.65;;
74309;SDS011;62722;51.142;17.052;2023-04-19T07:56:06;7.07;;;4.10;;
74309;SDS011;62722;51.142;17.052;2023-04-19T07:58:35;8.68;;;4.18;;
74309;SDS011;62722;51.142;17.052;2023-04-19T08:01:04;12.05;;;4.35;;
74309;SDS011;62722;51.142;17.052;2023-04-19T08:03:32;6.90;;;3.83;;
74309;SDS011;62722;51.142;17.052;2023-04-19T08:06:01;11.30;;;4.25;;
74309;SDS011;62722;51.142;17.052;2023-04-19T08:08:29;10.52;;;4.88;;
74309;SDS011;62722;51.142;17.052;2023-04-19T08:10:57;8.52;;;4.18;;
74309;SDS011;62722;51.142;17.052;2023-04-19T08:13:26;9.05;;;4.30;;
74309;SDS011;62722;51.142;17.052;2023-04-19T08:15:55;9.43;;;4.63;;
74309;SDS011;62722;51.142;17.052;2023-04-19T08:18:23;9.90;;;4.95;;
74309;SDS011;62722;51.142;17.052;2023-04-19T08:20:51;9.30;;;3.95;;
74309;SDS011;62722;51.142;17.052;2023-04-19T08:23:18;9.48;;;4.15;;
74309;SDS011;62722;51.142;17.052;2023-04-19T08:25:46;8.90;;;4.43;;
74309;SDS011;62722;51.142;17.052;2023-04-19T08:28:13;8.88;;;5.70;;
74309;SDS011;62722;51.142;17.052;2023-04-19T08:30:41;9.02;;;4.25;;
74309;SDS011;62722;51.142;17.052;2023-04-19T08:33:10;13.15;;;4.30;;
74309;SDS011;62722;51.142;17.052;2023-04-19T08:35:38;10.60;;;5.03;;
74309;SDS011;62722;51.142;17.052;2023-04-19T08:38:06;8.32;;;4.38;;
74309;SDS011;62722;51.142;17.052;2023-04-19T08:40:34;9.95;;;4.78;;
74309;SDS011;62722;51.142;17.052;2023-04-19T08:43:07;7.65;;;4.15;;
74309;SDS011;62722;51.142;17.052;2023-04-19T08:45:35;8.15;;;4.05;;
74309;SDS011;62722;51.142;17.052;2023-04-19T08:48:03;9.98;;;4.50;;
74309;SDS011;62722;51.142;17.052;2023-04-19T08:50:33;13.43;;;5.40;;
74309;SDS011;62722;51.142;17.052;2023-04-19T08:53:01;10.50;;;5.53;;
74309;SDS011;62722;51.142;17.052;2023-04-19T08:55:29;10.00;;;5.35;;
74309;SDS011;62722;51.142;17.052;2023-04-19T08:57:57;10.60;;;5.47;;
74309;SDS011;62722;51.142;17.052;2023-04-19T09:00:28;9.43;;;4.80;;
74309;SDS011;62722;51.142;17.052;2023-04-19T09:02:56;12.00;;;5.15;;
74309;SDS011;62722;51.142;17.052;2023-04-19T09:05:24;9.63;;;5.45;;
74309;SDS011;62722;51.142;17.052;2023-04-19T09:07:53;9.63;;;4.93;;
74309;SDS011;62722;51.142;17.052;2023-04-19T09:10:20;12.45;;;5.22;;
74309;SDS011;62722;51.142;17.052;2023-04-19T09:12:59;10.35;;;5.57;;
74309;SDS011;62722;51.142;17.052;2023-04-19T09:15:34;10.88;;;5.80;;
74309;SDS011;62722;51.142;17.052;2023-04-19T09:18:03;11.25;;;5.97;;
74309;SDS011;62722;51.142;17.052;2023-04-19T09:20:35;10.60;;;5.93;;
74309;SDS011;62722;51.142;17.052;2023-04-19T09:23:05;9.10;;;5.95;;
74309;SDS011;62722;51.142;17.052;2023-04-19T09:25:34;7.82;;;4.90;;
74309;SDS011;62722;51.142;17.052;2023-04-19T09:28:08;9.35;;;5.85;;
74309;SDS011;62722;51.142;17.052;2023-04-19T09:30:37;10.23;;;5.88;;
74309;SDS011;62722;51.142;17.052;2023-04-19T09:33:05;10.35;;;5.85;;
74309;SDS011;62722;51.142;17.052;2023-04-19T09:35:40;10.48;;;5.32;;
74309;SDS011;62722;51.142;17.052;2023-04-19T09:38:09;11.48;;;5.88;;
74309;SDS011;62722;51.142;17.052;2023-04-19T09:40:38;11.85;;;6.43;;
74309;SDS011;62722;51.142;17.052;2023-04-19T09:43:06;12.15;;;6.35;;
74309;SDS011;62722;51.142;17.052;2023-04-19T09:45:41;13.18;;;5.68;;
74309;SDS011;62722;51.142;17.052;2023-04-19T09:48:09;10.07;;;5.35;;
74309;SDS011;62722;51.142;17.052;2023-04-19T09:50:49;13.88;;;6.32;;
74309;SDS011;62722;51.142;17.052;2023-04-19T09:53:20;11.20;;;6.03;;
74309;SDS011;62722;51.142;17.052;2023-04-19T09:55:48;10.15;;;5.63;;
74309;SDS011;62722;51.142;17.052;2023-04-19T09:58:16;12.43;;;6.15;;
74309;SDS011;62722;51.142;17.052;2023-04-19T10:00:45;12.10;;;6.00;;
74309;SDS011;62722;51.142;17.052;2023-04-19T10:03:13;11.38;;;6.70;;
74309;SDS011;62722;51.142;17.052;2023-04-19T10:05:42;10.50;;;6.10;;
74309;SDS011;62722;51.142;17.052;2023-04-19T10:08:11;13.27;;;5.78;;
74309;SDS011;62722;51.142;17.052;2023-04-19T10:10:41;10.20;;;6.32;;
74309;SDS011;62722;51.142;17.052;2023-04-19T10:13:11;12.55;;;5.90;;
74309;SDS011;62722;51.142;17.052;2023-04-19T10:15:41;10.73;;;6.53;;
74309;SDS011;62722;51.142;17.052;2023-04-19T10:18:28;10.45;;;5.03;;
74309;SDS011;62722;51.142;17.052;2023-04-19T10:20:57;10.73;;;5.82;;
74309;SDS011;62722;51.142;17.052;2023-04-19T10:23:27;11.95;;;5.80;;
74309;SDS011;62722;51.142;17.052;2023-04-19T10:25:56;11.55;;;6.22;;
74309;SDS011;62722;51.142;17.052;2023-04-19T10:28:24;9.98;;;5.47;;
74309;SDS011;62722;51.142;17.052;2023-04-19T10:30:57;10.98;;;5.47;;
74309;SDS011;62722;51.142;17.052;2023-04-19T10:33:27;13.35;;;5.97;;
74309;SDS011;62722;51.142;17.052;2023-04-19T10:35:56;10.57;;;5.70;;
74309;SDS011;62722;51.142;17.052;2023-04-19T10:38:34;11.82;;;6.13;;
74309;SDS011;62722;51.142;17.052;2023-04-19T10:41:05;9.73;;;5.65;;
74309;SDS011;62722;51.142;17.052;2023-04-19T10:43:39;10.63;;;5.68;;
74309;SDS011;62722;51.142;17.052;2023-04-19T10:46:08;10.65;;;5.90;;
74309;SDS011;62722;51.142;17.052;2023-04-19T10:48:40;13.02;;;6.45;;
74309;SDS011;62722;51.142;17.052;2023-04-19T10:51:19;11.93;;;6.03;;
74309;SDS011;62722;51.142;17.052;2023-04-19T10:53:49;12.23;;;6.10;;
74309;SDS011;62722;51.142;17.052;2023-04-19T10:56:20;14.20;;;7.00;;
74309;SDS011;62722;51.142;17.052;2023-04-19T10:59:12;11.02;;;6.40;;
74309;SDS011;62722;51.142;17.052;2023-04-19T11:01:49;8.07;;;4.60;;
74309;SDS011;62722;51.142;17.052;2023-04-19T11:04:19;13.40;;;6.53;;
74309;SDS011;62722;51.142;17.052;2023-04-19T11:07:01;15.45;;;6.68;;
74309;SDS011;62722;51.142;17.052;2023-04-19T11:09:30;12.50;;;6.50;;
74309;SDS011;62722;51.142;17.052;2023-04-19T11:12:01;11.73;;;6.03;;
74309;SDS011;62722;51.142;17.052;2023-04-19T11:14:34;10.18;;;6.03;;
74309;SDS011;62722;51.142;17.052;2023-04-19T11:17:03;10.88;;;5.93;;
74309;SDS011;62722;51.142;17.052;2023-04-19T11:19:41;11.15;;;6.32;;
74309;SDS011;62722;51.142;17.052;2023-04-19T11:22:10;11.55;;;5.63;;
74309;SDS011;62722;51.142;17.052;2023-04-19T11:24:37;8.80;;;5.13;;
74309;SDS011;62722;51.142;17.052;2023-04-19T11:27:13;12.77;;;6.55;;
74309;SDS011;62722;51.142;17.052;2023-04-19T11:29:41;12.00;;;6.05;;
74309;SDS011;62722;51.142;17.052;2023-04-19T11:32:09;10.57;;;5.70;;
74309;SDS011;62722;51.142;17.052;2023-04-19T11:34:36;10.35;;;6.28;;
74309;SDS011;62722;51.142;17.052;2023-04-19T11:37:04;11.95;;;7.03;;
74309;SDS011;62722;51.142;17.052;2023-04-19T11:39:32;11.98;;;5.85;;
74309;SDS011;62722;51.142;17.052;2023-04-19T11:42:00;12.88;;;6.70;;
74309;SDS011;62722;51.142;17.052;2023-04-19T11:44:29;12.40;;;6.65;;
74309;SDS011;62722;51.142;17.052;2023-04-19T11:46:59;11.48;;;6.28;;
74309;SDS011;62722;51.142;17.052;2023-04-19T11:49:28;14.52;;;6.95;;
74309;SDS011;62722;51.142;17.052;2023-04-19T11:51:57;14.18;;;7.38;;
74309;SDS011;62722;51.142;17.052;2023-04-19T11:54:25;12.30;;;6.60;;
74309;SDS011;62722;51.142;17.052;2023-04-19T11:57:00;12.25;;;6.18;;
74309;SDS011;62722;51.142;17.052;2023-04-19T11:59:31;10.95;;;6.38;;
74309;SDS011;62722;51.142;17.052;2023-04-19T12:02:06;12.02;;;6.32;;
74309;SDS011;62722;51.142;17.052;2023-04-19T12:04:34;11.05;;;6.53;;
74309;SDS011;62722;51.142;17.052;2023-04-19T12:07:03;12.38;;;7.07;;
74309;SDS011;62722;51.142;17.052;2023-04-19T12:09:32;12.60;;;7.03;;
74309;SDS011;62722;51.142;17.052;2023-04-19T12:12:01;12.73;;;6.53;;
74309;SDS011;62722;51.142;17.052;2023-04-19T12:14:30;15.05;;;6.97;;
74309;SDS011;62722;51.142;17.052;2023-04-19T12:17:05;13.40;;;6.88;;
74309;SDS011;62722;51.142;17.052;2023-04-19T12:19:34;12.80;;;7.30;;
74309;SDS011;62722;51.142;17.052;2023-04-19T12:22:09;13.25;;;7.03;;
74309;SDS011;62722;51.142;17.052;2023-04-19T12:24:38;11.45;;;7.35;;
74309;SDS011;62722;51.142;17.052;2023-04-19T12:27:06;13.43;;;7.85;;
74309;SDS011;62722;51.142;17.052;2023-04-19T12:29:36;14.13;;;7.82;;
74309;SDS011;62722;51.142;17.052;2023-04-19T12:32:05;11.23;;;6.90;;
74309;SDS011;62722;51.142;17.052;2023-04-19T12:34:32;12.93;;;6.13;;
74309;SDS011;62722;51.142;17.052;2023-04-19T12:37:00;9.98;;;6.25;;
74309;SDS011;62722;51.142;17.052;2023-04-19T12:39:28;10.32;;;5.60;;
74309;SDS011;62722;51.142;17.052;2023-04-19T12:41:56;10.98;;;5.70;;
74309;SDS011;62722;51.142;17.052;2023-04-19T12:44:24;9.98;;;6.22;;
74309;SDS011;62722;51.142;17.052;2023-04-19T12:46:53;9.23;;;4.82;;
74309;SDS011;62722;51.142;17.052;2023-04-19T12:49:21;15.45;;;5.82;;
74309;SDS011;62722;51.142;17.052;2023-04-19T12:51:50;10.05;;;5.95;;
74309;SDS011;62722;51.142;17.052;2023-04-19T12:54:17;9.75;;;5.68;;
74309;SDS011;62722;51.142;17.052;2023-04-19T12:56:45;9.55;;;5.53;;
74309;SDS011;62722;51.142;17.052;2023-04-19T12:59:12;11.90;;;5.60;;
74309;SDS011;62722;51.142;17.052;2023-04-19T13:01:40;8.98;;;4.80;;
74309;SDS011;62722;51.142;17.052;2023-04-19T13:04:09;10.55;;;5.43;;
74309;SDS011;62722;51.142;17.052;2023-04-19T13:06:37;9.93;;;5.65;;
74309;SDS011;62722;51.142;17.052;2023-04-19T13:09:05;12.75;;;6.15;;
74309;SDS011;62722;51.142;17.052;2023-04-19T13:11:33;10.18;;;5.63;;
74309;SDS011;62722;51.142;17.052;2023-04-19T13:14:00;8.95;;;4.60;;
74309;SDS011;62722;51.142;17.052;2023-04-19T13:16:28;12.85;;;6.70;;
74309;SDS011;62722;51.142;17.052;2023-04-19T13:18:55;10.82;;;6.70;;
74309;SDS011;62722;51.142;17.052;2023-04-19T13:21:25;10.65;;;6.47;;
74309;SDS011;62722;51.142;17.052;2023-04-19T13:23:52;8.25;;;4.75;;
74309;SDS011;62722;51.142;17.052;2023-04-19T13:26:20;10.65;;;6.05;;
74309;SDS011;62722;51.142;17.052;2023-04-19T13:28:48;12.65;;;6.38;;
74309;SDS011;62722;51.142;17.052;2023-04-19T13:31:15;9.60;;;5.25;;
74309;SDS011;62722;51.142;17.052;2023-04-19T13:33:43;11.88;;;5.50;;
74309;SDS011;62722;51.142;17.052;2023-04-19T13:36:11;15.07;;;6.30;;
74309;SDS011;62722;51.142;17.052;2023-04-19T13:38:40;10.48;;;6.13;;
74309;SDS011;62722;51.142;17.052;2023-04-19T13:41:08;10.55;;;6.13;;
74309;SDS011;62722;51.142;17.052;2023-04-19T13:43:36;9.27;;;5.32;;
74309;SDS011;62722;51.142;17.052;2023-04-19T13:46:03;9.40;;;5.85;;
74309;SDS011;62722;51.142;17.052;2023-04-19T13:48:31;10.02;;;5.25;;
74309;SDS011;62722;51.142;17.052;2023-04-19T13:50:59;9.93;;;5.80;;
74309;SDS011;62722;51.142;17.052;2023-04-19T13:53:26;9.48;;;5.35;;
74309;SDS011;62722;51.142;17.052;2023-04-19T13:55:56;9.55;;;4.88;;
74309;SDS011;62722;51.142;17.052;2023-04-19T13:58:23;14.23;;;5.30;;
74309;SDS011;62722;51.142;17.052;2023-04-19T14:00:51;8.30;;;4.95;;
74309;SDS011;62722;51.142;17.052;2023-04-19T14:03:20;10.68;;;5.47;;
74309;SDS011;62722;51.142;17.052;2023-04-19T14:05:48;8.73;;;5.28;;
74309;SDS011;62722;51.142;17.052;2023-04-19T14:08:15;8.93;;;5.43;;
74309;SDS011;62722;51.142;17.052;2023-04-19T14:10:43;8.02;;;5.20;;
74309;SDS011;62722;51.142;17.052;2023-04-19T14:13:12;9.85;;;5.13;;
74309;SDS011;62722;51.142;17.052;2023-04-19T14:15:39;10.55;;;5.30;;
74309;SDS011;62722;51.142;17.052;2023-04-19T14:18:07;8.45;;;5.22;;
74309;SDS011;62722;51.142;17.052;2023-04-19T14:20:34;8.82;;;5.30;;
74309;SDS011;62722;51.142;17.052;2023-04-19T14:23:02;11.43;;;6.97;;
74309;SDS011;62722;51.142;17.052;2023-04-19T14:25:30;10.45;;;5.85;;
74309;SDS011;62722;51.142;17.052;2023-04-19T14:27:57;9.80;;;5.53;;
74309;SDS011;62722;51.142;17.052;2023-04-19T14:30:27;9.43;;;6.10;;
74309;SDS011;62722;51.142;17.052;2023-04-19T14:32:54;8.50;;;5.25;;
74309;SDS011;62722;51.142;17.052;2023-04-19T14:35:22;11.20;;;6.20;;
74309;SDS011;62722;51.142;17.052;2023-04-19T14:37:49;8.30;;;5.43;;